sensor_id;sensor_type;location;lat;lon;timestamp;P1;P2;P0
47709;PMS7003;33473;51.640;5.892;2023-03-21T00:03:33;11.05;11.89;7.75
47709;PMS7003;33473;51.640;5.892;2023-03-21T00:16:52;12.49;13.85;8.84
47709;PMS7003;33473;51.640;5.892;2023-03-21T00:30:12;15.49;15.16;9.27
47709;PMS7003;33473;51.640;5.892;2023-03-21T00:43:32;14.89;15.81;9.93
47709;PMS7003;33473;51.640;5.892;2023-03-21T00:56:52;16.21;16.25;10.36
47709;PMS7003;33473;51.640;5.892;2023-03-21T01:10:11;18.61;17.67;11.13
47709;PMS7003;33473;51.640;5.892;2023-03-21T01:23:31;15.25;16.47;10.58
47709;PMS7003;33473;51.640;5.892;2023-03-21T01:36:51;15.97;16.36;10.26
47709;PMS7003;33473;51.640;5.892;2023-03-21T01:50:10;15.85;14.72;9.6
47709;PMS7003;33473;51.640;5.892;2023-03-21T02:03:30;13.57;14.62;8.95
47709;PMS7003;33473;51.640;5.892;2023-03-21T02:16:50;11.29;13.2;8.51
47709;PMS7003;33473;51.640;5.892;2023-03-21T02:30:09;12.01;12.76;8.18
47709;PMS7003;33473;51.640;5.892;2023-03-21T02:43:29;12.49;13.53;8.73
47709;PMS7003;33473;51.640;5.892;2023-03-21T02:56:49;12.01;12.76;8.51
47709;PMS7003;33473;51.640;5.892;2023-03-21T03:10:08;11.29;12.11;8.4
47709;PMS7003;33473;51.640;5.892;2023-03-21T03:23:28;11.77;12.76;8.18
47709;PMS7003;33473;51.640;5.892;2023-03-21T03:36:48;12.97;12.98;8.4
47709;PMS7003;33473;51.640;5.892;2023-03-21T03:50:07;11.53;12.65;8.4
47709;PMS7003;33473;51.640;5.892;2023-03-21T04:03:27;12.37;13.2;8.29
47709;PMS7003;33473;51.640;5.892;2023-03-21T04:16:47;11.65;12.87;8.4
47709;PMS7003;33473;51.640;5.892;2023-03-21T04:30:06;12.97;12.22;7.86
47709;PMS7003;33473;51.640;5.892;2023-03-21T04:43:26;12.01;12.54;7.53
47709;PMS7003;33473;51.640;5.892;2023-03-21T04:56:46;10.45;12.0;7.2
47709;PMS7003;33473;51.640;5.892;2023-03-21T05:10:05;10.33;11.78;7.64
47709;PMS7003;33473;51.640;5.892;2023-03-21T05:23:25;10.21;11.89;7.64
47709;PMS7003;33473;51.640;5.892;2023-03-21T05:36:45;11.77;12.0;7.75
47709;PMS7003;33473;51.640;5.892;2023-03-21T05:50:04;10.57;12.44;7.53
47709;PMS7003;33473;51.640;5.892;2023-03-21T06:03:24;13.21;12.22;7.64
47709;PMS7003;33473;51.640;5.892;2023-03-21T06:16:44;10.57;12.33;7.86
47709;PMS7003;33473;51.640;5.892;2023-03-21T06:30:03;11.89;12.44;8.18
47709;PMS7003;33473;51.640;5.892;2023-03-21T06:43:23;10.09;12.22;7.64
47709;PMS7003;33473;51.640;5.892;2023-03-21T06:56:43;12.13;12.44;8.29
47709;PMS7003;33473;51.640;5.892;2023-03-21T07:10:02;8.29;10.58;6.66
47709;PMS7003;33473;51.640;5.892;2023-03-21T07:23:22;10.69;10.15;6.33
47709;PMS7003;33473;51.640;5.892;2023-03-21T07:36:42;7.33;9.49;6.22
47709;PMS7003;33473;51.640;5.892;2023-03-21T07:50:01;8.41;9.71;6.22
47709;PMS7003;33473;51.640;5.892;2023-03-21T08:03:21;9.61;9.27;6.22
47709;PMS7003;33473;51.640;5.892;2023-03-21T08:16:41;8.05;9.93;6.55
47709;PMS7003;33473;51.640;5.892;2023-03-21T08:30:00;8.41;10.26;6.88
47709;PMS7003;33473;51.640;5.892;2023-03-21T08:43:20;10.09;10.26;6.55
47709;PMS7003;33473;51.640;5.892;2023-03-21T08:56:40;8.53;10.47;6.88
47709;PMS7003;33473;51.640;5.892;2023-03-21T09:09:59;9.85;10.36;7.09
47709;PMS7003;33473;51.640;5.892;2023-03-21T09:36:39;7.21;8.95;6.22
47709;PMS7003;33473;51.640;5.892;2023-03-21T09:49:59;8.65;9.49;6.44
47709;PMS7003;33473;51.640;5.892;2023-03-21T10:03:18;7.57;9.38;6.22
47709;PMS7003;33473;51.640;5.892;2023-03-21T10:16:38;8.05;9.27;6.11
47709;PMS7003;33473;51.640;5.892;2023-03-21T10:29:58;6.97;8.84;6.22
47709;PMS7003;33473;51.640;5.892;2023-03-21T10:43:17;5.77;8.29;5.68
47709;PMS7003;33473;51.640;5.892;2023-03-21T10:56:37;4.69;7.2;5.02
47709;PMS7003;33473;51.640;5.892;2023-03-21T11:09:57;4.69;6.55;4.7
47709;PMS7003;33473;51.640;5.892;2023-03-21T11:23:16;5.65;7.53;5.02
47709;PMS7003;33473;51.640;5.892;2023-03-21T11:36:36;5.29;6.99;5.02
47709;PMS7003;33473;51.640;5.892;2023-03-21T11:49:56;4.81;7.42;5.35
47709;PMS7003;33473;51.640;5.892;2023-03-21T12:03:15;5.77;7.09;4.7
47709;PMS7003;33473;51.640;5.892;2023-03-21T12:16:35;5.05;7.2;4.91
47709;PMS7003;33473;51.640;5.892;2023-03-21T12:29:55;5.53;7.97;5.68
47709;PMS7003;33473;51.640;5.892;2023-03-21T12:43:14;3.24;5.57;3.93
47709;PMS7003;33473;51.640;5.892;2023-03-21T12:56:34;4.21;5.68;3.71
47709;PMS7003;33473;51.640;5.892;2023-03-21T13:09:54;2.64;5.57;4.04
47709;PMS7003;33473;51.640;5.892;2023-03-21T13:23:14;3.12;5.46;3.61
47709;PMS7003;33473;51.640;5.892;2023-03-21T13:36:33;3.73;6.22;4.15
47709;PMS7003;33473;51.640;5.892;2023-03-21T13:49:53;3.36;5.68;4.15
47709;PMS7003;33473;51.640;5.892;2023-03-21T14:03:13;5.41;6.77;4.91
47709;PMS7003;33473;51.640;5.892;2023-03-21T14:16:32;3.48;6.22;4.7
47709;PMS7003;33473;51.640;5.892;2023-03-21T14:29:52;3.0;6.0;4.37
47709;PMS7003;33473;51.640;5.892;2023-03-21T14:43:12;3.73;5.68;4.15
47709;PMS7003;33473;51.640;5.892;2023-03-21T14:56:31;3.6;5.68;4.15
47709;PMS7003;33473;51.640;5.892;2023-03-21T15:09:51;3.97;6.0;4.48
47709;PMS7003;33473;51.640;5.892;2023-03-21T15:23:11;3.6;6.55;4.59
47709;PMS7003;33473;51.640;5.892;2023-03-21T15:36:30;5.17;6.99;5.13
47709;PMS7003;33473;51.640;5.892;2023-03-21T15:49:50;4.57;6.99;4.91
47709;PMS7003;33473;51.640;5.892;2023-03-21T16:03:10;4.21;6.99;4.7
47709;PMS7003;33473;51.640;5.892;2023-03-21T16:16:29;3.85;5.46;3.82
47709;PMS7003;33473;51.640;5.892;2023-03-21T16:29:49;2.88;5.02;3.71
47709;PMS7003;33473;51.640;5.892;2023-03-21T16:43:09;1.68;4.48;3.17
47709;PMS7003;33473;51.640;5.892;2023-03-21T16:56:29;1.56;4.7;3.5
47709;PMS7003;33473;51.640;5.892;2023-03-21T17:09:48;4.45;4.59;3.61
47709;PMS7003;33473;51.640;5.892;2023-03-21T17:23:08;5.17;7.09;4.91
47709;PMS7003;33473;51.640;5.892;2023-03-21T17:36:28;5.29;7.86;5.35
47709;PMS7003;33473;51.640;5.892;2023-03-21T17:49:47;5.65;7.42;5.46
47709;PMS7003;33473;51.640;5.892;2023-03-21T18:03:07;6.37;8.18;5.79
47709;PMS7003;33473;51.640;5.892;2023-03-21T18:16:27;5.05;7.86;5.9
47709;PMS7003;33473;51.640;5.892;2023-03-21T18:29:46;8.53;11.02;7.42
47709;PMS7003;33473;51.640;5.892;2023-03-21T18:43:06;7.45;9.71;6.44
47709;PMS7003;33473;51.640;5.892;2023-03-21T18:56:26;5.77;8.51;6.22
47709;PMS7003;33473;51.640;5.892;2023-03-21T19:09:45;6.49;9.06;5.9
47709;PMS7003;33473;51.640;5.892;2023-03-21T19:23:05;8.65;11.02;7.42
47709;PMS7003;33473;51.640;5.892;2023-03-21T19:36:25;9.01;11.24;8.18
47709;PMS7003;33473;51.640;5.892;2023-03-21T19:49:44;9.61;11.89;8.18
47709;PMS7003;33473;51.640;5.892;2023-03-21T20:03:04;10.33;12.33;8.84
47709;PMS7003;33473;51.640;5.892;2023-03-21T20:16:24;12.85;13.85;9.6
47709;PMS7003;33473;51.640;5.892;2023-03-21T20:29:43;11.77;13.96;9.49
47709;PMS7003;33473;51.640;5.892;2023-03-21T20:43:03;12.85;14.51;9.6
47709;PMS7003;33473;51.640;5.892;2023-03-21T20:56:22;10.45;11.89;8.08
47709;PMS7003;33473;51.640;5.892;2023-03-21T21:09:42;7.93;9.6;6.55
47709;PMS7003;33473;51.640;5.892;2023-03-21T21:23:02;7.45;9.82;6.55
47709;PMS7003;33473;51.640;5.892;2023-03-21T21:36:21;6.49;9.17;6.55
47709;PMS7003;33473;51.640;5.892;2023-03-21T21:49:41;10.21;10.04;6.99
47709;PMS7003;33473;51.640;5.892;2023-03-21T22:03:01;7.81;10.36;7.2
47709;PMS7003;33473;51.640;5.892;2023-03-21T22:16:21;9.97;12.0;7.75
47709;PMS7003;33473;51.640;5.892;2023-03-21T22:29:40;7.33;9.93;6.77
47709;PMS7003;33473;51.640;5.892;2023-03-21T22:43:00;5.41;8.18;5.68
47709;PMS7003;33473;51.640;5.892;2023-03-21T22:56:20;3.36;6.22;4.15
47709;PMS7003;33473;51.640;5.892;2023-03-21T23:09:39;3.6;6.22;3.93
47709;PMS7003;33473;51.640;5.892;2023-03-21T23:22:59;3.0;5.79;4.26
47709;PMS7003;33473;51.640;5.892;2023-03-21T23:36:19;7.45;9.82;6.99
47709;PMS7003;33473;51.640;5.892;2023-03-21T23:49:38;9.49;11.56;7.75
